sensor_id;sensor_type;location;lat;lon;timestamp;temperature;humidity
74511;DHT22;62991;50.040;18.400;2023-02-26T00:00:17;1.70;73.10
74511;DHT22;62991;50.040;18.400;2023-02-26T00:03:20;1.80;72.60
74511;DHT22;62991;50.040;18.400;2023-02-26T00:06:22;1.80;72.70
74511;DHT22;62991;50.040;18.400;2023-02-26T00:09:23;1.90;72.50
74511;DHT22;62991;50.040;18.400;2023-02-26T00:12:24;1.90;71.90
74511;DHT22;62991;50.040;18.400;2023-02-26T00:15:25;2.00;71.40
74511;DHT22;62991;50.040;18.400;2023-02-26T00:18:26;2.00;71.20
74511;DHT22;62991;50.040;18.400;2023-02-26T00:21:29;2.00;70.80
74511;DHT22;62991;50.040;18.400;2023-02-26T00:24:30;1.90;70.80
74511;DHT22;62991;50.040;18.400;2023-02-26T00:27:30;1.90;70.20
74511;DHT22;62991;50.040;18.400;2023-02-26T00:30:31;1.90;69.90
74511;DHT22;62991;50.040;18.400;2023-02-26T00:33:33;1.90;69.70
74511;DHT22;62991;50.040;18.400;2023-02-26T00:43:26;2.00;68.10
74511;DHT22;62991;50.040;18.400;2023-02-26T00:46:48;2.20;68.20
74511;DHT22;62991;50.040;18.400;2023-02-26T00:53:24;2.20;66.80
74511;DHT22;62991;50.040;18.400;2023-02-26T00:56:26;2.00;66.90
74511;DHT22;62991;50.040;18.400;2023-02-26T00:59:27;2.00;67.10
74511;DHT22;62991;50.040;18.400;2023-02-26T01:02:28;1.80;67.70
74511;DHT22;62991;50.040;18.400;2023-02-26T01:05:29;1.90;67.80
74511;DHT22;62991;50.040;18.400;2023-02-26T01:08:34;1.80;67.80
74511;DHT22;62991;50.040;18.400;2023-02-26T01:11:37;1.90;68.10
74511;DHT22;62991;50.040;18.400;2023-02-26T01:14:39;2.10;67.50
74511;DHT22;62991;50.040;18.400;2023-02-26T01:17:55;2.10;67.90
74511;DHT22;62991;50.040;18.400;2023-02-26T01:21:04;2.20;67.70
74511;DHT22;62991;50.040;18.400;2023-02-26T01:24:07;2.30;67.80
74511;DHT22;62991;50.040;18.400;2023-02-26T01:27:09;2.20;67.70
74511;DHT22;62991;50.040;18.400;2023-02-26T01:30:10;2.20;67.90
74511;DHT22;62991;50.040;18.400;2023-02-26T01:33:44;2.10;68.10
74511;DHT22;62991;50.040;18.400;2023-02-26T01:36:53;2.30;68.10
74511;DHT22;62991;50.040;18.400;2023-02-26T01:47:25;2.00;69.00
74511;DHT22;62991;50.040;18.400;2023-02-26T01:50:28;2.00;69.10
74511;DHT22;62991;50.040;18.400;2023-02-26T01:53:31;2.00;69.20
74511;DHT22;62991;50.040;18.400;2023-02-26T01:56:32;2.00;69.30
74511;DHT22;62991;50.040;18.400;2023-02-26T01:59:39;2.10;69.20
74511;DHT22;62991;50.040;18.400;2023-02-26T02:02:40;2.10;69.10
74511;DHT22;62991;50.040;18.400;2023-02-26T02:05:46;2.00;69.40
74511;DHT22;62991;50.040;18.400;2023-02-26T02:08:48;1.90;69.80
74511;DHT22;62991;50.040;18.400;2023-02-26T02:21:42;1.90;70.40
74511;DHT22;62991;50.040;18.400;2023-02-26T02:31:14;1.80;71.40
74511;DHT22;62991;50.040;18.400;2023-02-26T02:34:39;1.80;71.20
74511;DHT22;62991;50.040;18.400;2023-02-26T02:37:51;1.70;71.20
74511;DHT22;62991;50.040;18.400;2023-02-26T02:41:07;1.70;71.40
74511;DHT22;62991;50.040;18.400;2023-02-26T02:44:11;1.70;71.20
74511;DHT22;62991;50.040;18.400;2023-02-26T02:47:14;1.70;71.40
74511;DHT22;62991;50.040;18.400;2023-02-26T02:50:33;1.70;71.40
74511;DHT22;62991;50.040;18.400;2023-02-26T02:53:47;1.70;71.20
74511;DHT22;62991;50.040;18.400;2023-02-26T02:56:53;1.70;70.80
74511;DHT22;62991;50.040;18.400;2023-02-26T03:00:03;1.70;70.90
74511;DHT22;62991;50.040;18.400;2023-02-26T03:06:34;1.70;70.30
74511;DHT22;62991;50.040;18.400;2023-02-26T03:09:35;1.70;70.40
74511;DHT22;62991;50.040;18.400;2023-02-26T03:12:36;1.80;69.70
74511;DHT22;62991;50.040;18.400;2023-02-26T03:26:07;1.50;68.60
74511;DHT22;62991;50.040;18.400;2023-02-26T03:29:19;1.60;68.90
74511;DHT22;62991;50.040;18.400;2023-02-26T03:32:31;1.50;68.40
74511;DHT22;62991;50.040;18.400;2023-02-26T03:39:08;1.70;68.10
74511;DHT22;62991;50.040;18.400;2023-02-26T03:42:23;1.60;68.40
74511;DHT22;62991;50.040;18.400;2023-02-26T03:45:30;1.70;68.10
74511;DHT22;62991;50.040;18.400;2023-02-26T03:48:33;1.70;68.10
74511;DHT22;62991;50.040;18.400;2023-02-26T03:51:35;1.70;68.30
74511;DHT22;62991;50.040;18.400;2023-02-26T03:54:42;1.90;68.30
74511;DHT22;62991;50.040;18.400;2023-02-26T03:57:44;1.90;68.10
74511;DHT22;62991;50.040;18.400;2023-02-26T04:00:51;1.90;68.80
74511;DHT22;62991;50.040;18.400;2023-02-26T04:04:08;2.10;68.60
74511;DHT22;62991;50.040;18.400;2023-02-26T04:07:11;2.40;67.90
74511;DHT22;62991;50.040;18.400;2023-02-26T04:10:15;2.30;68.00
74511;DHT22;62991;50.040;18.400;2023-02-26T04:13:17;2.50;67.50
74511;DHT22;62991;50.040;18.400;2023-02-26T04:16:19;2.50;67.50
74511;DHT22;62991;50.040;18.400;2023-02-26T04:19:20;2.50;67.60
74511;DHT22;62991;50.040;18.400;2023-02-26T04:22:20;2.50;67.40
74511;DHT22;62991;50.040;18.400;2023-02-26T04:25:21;2.30;67.70
74511;DHT22;62991;50.040;18.400;2023-02-26T04:28:22;2.30;66.90
74511;DHT22;62991;50.040;18.400;2023-02-26T04:31:23;2.20;67.20
74511;DHT22;62991;50.040;18.400;2023-02-26T04:34:24;2.10;67.30
74511;DHT22;62991;50.040;18.400;2023-02-26T04:37:24;2.20;67.20
74511;DHT22;62991;50.040;18.400;2023-02-26T04:40:25;2.10;66.90
74511;DHT22;62991;50.040;18.400;2023-02-26T04:43:26;2.10;66.80
74511;DHT22;62991;50.040;18.400;2023-02-26T04:46:27;1.90;67.50
74511;DHT22;62991;50.040;18.400;2023-02-26T04:49:28;2.00;67.40
74511;DHT22;62991;50.040;18.400;2023-02-26T04:52:28;2.00;67.50
74511;DHT22;62991;50.040;18.400;2023-02-26T04:55:29;1.90;67.20
74511;DHT22;62991;50.040;18.400;2023-02-26T04:58:30;1.90;66.80
74511;DHT22;62991;50.040;18.400;2023-02-26T05:01:31;1.80;66.50
74511;DHT22;62991;50.040;18.400;2023-02-26T05:04:31;1.70;66.40
74511;DHT22;62991;50.040;18.400;2023-02-26T05:07:32;1.90;66.20
74511;DHT22;62991;50.040;18.400;2023-02-26T05:10:33;1.90;66.20
74511;DHT22;62991;50.040;18.400;2023-02-26T05:13:33;1.90;66.10
74511;DHT22;62991;50.040;18.400;2023-02-26T05:16:34;1.70;65.90
74511;DHT22;62991;50.040;18.400;2023-02-26T05:19:35;1.70;65.90
74511;DHT22;62991;50.040;18.400;2023-02-26T05:22:37;1.70;66.10
74511;DHT22;62991;50.040;18.400;2023-02-26T05:25:37;1.50;66.30
74511;DHT22;62991;50.040;18.400;2023-02-26T05:28:38;1.50;66.20
74511;DHT22;62991;50.040;18.400;2023-02-26T05:31:39;1.60;65.70
74511;DHT22;62991;50.040;18.400;2023-02-26T05:34:39;1.50;65.50
74511;DHT22;62991;50.040;18.400;2023-02-26T05:37:40;1.50;65.20
74511;DHT22;62991;50.040;18.400;2023-02-26T05:40:41;1.60;65.30
74511;DHT22;62991;50.040;18.400;2023-02-26T05:43:42;1.50;65.30
74511;DHT22;62991;50.040;18.400;2023-02-26T05:46:42;1.60;65.20
74511;DHT22;62991;50.040;18.400;2023-02-26T05:49:43;1.70;65.20
74511;DHT22;62991;50.040;18.400;2023-02-26T05:52:44;1.80;64.30
74511;DHT22;62991;50.040;18.400;2023-02-26T05:55:44;1.90;64.60
74511;DHT22;62991;50.040;18.400;2023-02-26T05:58:45;1.80;64.40
74511;DHT22;62991;50.040;18.400;2023-02-26T06:01:46;1.80;64.70
74511;DHT22;62991;50.040;18.400;2023-02-26T06:04:47;1.90;64.30
74511;DHT22;62991;50.040;18.400;2023-02-26T06:07:48;1.80;64.30
74511;DHT22;62991;50.040;18.400;2023-02-26T06:10:50;2.00;64.40
74511;DHT22;62991;50.040;18.400;2023-02-26T06:13:51;1.90;64.40
74511;DHT22;62991;50.040;18.400;2023-02-26T06:16:52;2.00;64.40
74511;DHT22;62991;50.040;18.400;2023-02-26T06:19:52;2.20;64.20
74511;DHT22;62991;50.040;18.400;2023-02-26T06:22:53;2.20;64.00
74511;DHT22;62991;50.040;18.400;2023-02-26T06:25:54;2.50;63.50
74511;DHT22;62991;50.040;18.400;2023-02-26T06:28:54;2.40;63.60
74511;DHT22;62991;50.040;18.400;2023-02-26T06:31:55;2.40;62.90
74511;DHT22;62991;50.040;18.400;2023-02-26T06:34:56;2.30;63.50
74511;DHT22;62991;50.040;18.400;2023-02-26T06:37:57;2.30;63.90
74511;DHT22;62991;50.040;18.400;2023-02-26T06:40:58;2.20;64.00
74511;DHT22;62991;50.040;18.400;2023-02-26T06:43:58;2.20;64.70
74511;DHT22;62991;50.040;18.400;2023-02-26T06:46:59;2.30;64.20
74511;DHT22;62991;50.040;18.400;2023-02-26T06:49:59;2.40;64.30
74511;DHT22;62991;50.040;18.400;2023-02-26T06:53:02;2.30;64.10
74511;DHT22;62991;50.040;18.400;2023-02-26T06:56:04;2.40;64.30
74511;DHT22;62991;50.040;18.400;2023-02-26T06:59:05;2.40;64.60
74511;DHT22;62991;50.040;18.400;2023-02-26T07:02:06;2.50;64.30
74511;DHT22;62991;50.040;18.400;2023-02-26T07:05:07;2.50;64.60
74511;DHT22;62991;50.040;18.400;2023-02-26T07:08:08;2.50;64.60
74511;DHT22;62991;50.040;18.400;2023-02-26T07:11:09;2.60;64.40
74511;DHT22;62991;50.040;18.400;2023-02-26T07:14:09;2.50;64.50
74511;DHT22;62991;50.040;18.400;2023-02-26T07:17:11;2.70;64.60
74511;DHT22;62991;50.040;18.400;2023-02-26T07:20:19;2.60;64.40
74511;DHT22;62991;50.040;18.400;2023-02-26T07:23:20;2.70;65.60
74511;DHT22;62991;50.040;18.400;2023-02-26T07:26:21;2.60;64.90
74511;DHT22;62991;50.040;18.400;2023-02-26T07:29:21;2.60;66.80
74511;DHT22;62991;50.040;18.400;2023-02-26T07:32:22;2.60;66.10
74511;DHT22;62991;50.040;18.400;2023-02-26T07:35:23;2.90;65.90
74511;DHT22;62991;50.040;18.400;2023-02-26T07:38:24;3.10;64.80
74511;DHT22;62991;50.040;18.400;2023-02-26T07:41:24;3.20;64.70
74511;DHT22;62991;50.040;18.400;2023-02-26T07:44:25;3.20;63.90
74511;DHT22;62991;50.040;18.400;2023-02-26T07:47:26;3.30;63.70
74511;DHT22;62991;50.040;18.400;2023-02-26T07:50:26;3.10;64.30
74511;DHT22;62991;50.040;18.400;2023-02-26T07:53:27;2.90;64.50
74511;DHT22;62991;50.040;18.400;2023-02-26T07:56:28;3.00;64.50
74511;DHT22;62991;50.040;18.400;2023-02-26T07:59:29;3.20;64.20
74511;DHT22;62991;50.040;18.400;2023-02-26T08:02:29;3.20;64.00
74511;DHT22;62991;50.040;18.400;2023-02-26T08:05:30;3.10;64.30
74511;DHT22;62991;50.040;18.400;2023-02-26T08:08:31;3.00;64.10
74511;DHT22;62991;50.040;18.400;2023-02-26T08:11:32;3.00;64.60
74511;DHT22;62991;50.040;18.400;2023-02-26T08:14:36;3.10;64.10
74511;DHT22;62991;50.040;18.400;2023-02-26T08:17:36;3.00;64.40
74511;DHT22;62991;50.040;18.400;2023-02-26T08:20:37;3.00;64.80
74511;DHT22;62991;50.040;18.400;2023-02-26T08:23:38;3.20;64.20
74511;DHT22;62991;50.040;18.400;2023-02-26T08:26:40;3.30;64.20
74511;DHT22;62991;50.040;18.400;2023-02-26T08:29:40;3.20;64.60
74511;DHT22;62991;50.040;18.400;2023-02-26T08:32:42;3.10;65.10
74511;DHT22;62991;50.040;18.400;2023-02-26T08:35:42;2.70;66.90
74511;DHT22;62991;50.040;18.400;2023-02-26T08:38:43;2.50;67.20
74511;DHT22;62991;50.040;18.400;2023-02-26T08:41:44;2.30;67.90
74511;DHT22;62991;50.040;18.400;2023-02-26T08:44:45;2.10;68.40
74511;DHT22;62991;50.040;18.400;2023-02-26T08:47:46;2.10;69.00
74511;DHT22;62991;50.040;18.400;2023-02-26T08:50:47;2.10;68.60
74511;DHT22;62991;50.040;18.400;2023-02-26T08:53:48;2.20;68.10
74511;DHT22;62991;50.040;18.400;2023-02-26T08:56:50;2.20;67.60
74511;DHT22;62991;50.040;18.400;2023-02-26T08:59:50;2.50;67.30
74511;DHT22;62991;50.040;18.400;2023-02-26T09:02:51;3.10;65.40
74511;DHT22;62991;50.040;18.400;2023-02-26T09:05:52;2.80;64.80
74511;DHT22;62991;50.040;18.400;2023-02-26T09:08:52;2.50;67.00
74511;DHT22;62991;50.040;18.400;2023-02-26T09:11:53;2.50;66.40
74511;DHT22;62991;50.040;18.400;2023-02-26T09:14:54;2.40;65.40
74511;DHT22;62991;50.040;18.400;2023-02-26T09:17:54;2.50;65.10
74511;DHT22;62991;50.040;18.400;2023-02-26T09:20:55;2.50;64.20
74511;DHT22;62991;50.040;18.400;2023-02-26T09:23:56;2.80;64.20
74511;DHT22;62991;50.040;18.400;2023-02-26T09:26:56;3.20;63.60
74511;DHT22;62991;50.040;18.400;2023-02-26T09:29:57;3.50;62.80
74511;DHT22;62991;50.040;18.400;2023-02-26T09:32:58;3.80;61.70
74511;DHT22;62991;50.040;18.400;2023-02-26T09:35:59;3.80;60.90
74511;DHT22;62991;50.040;18.400;2023-02-26T09:39:00;3.30;62.30
74511;DHT22;62991;50.040;18.400;2023-02-26T09:45:38;3.10;62.60
74511;DHT22;62991;50.040;18.400;2023-02-26T09:48:41;3.30;61.20
74511;DHT22;62991;50.040;18.400;2023-02-26T09:51:48;3.50;60.40
74511;DHT22;62991;50.040;18.400;2023-02-26T09:54:55;3.00;61.40
74511;DHT22;62991;50.040;18.400;2023-02-26T09:58:02;2.90;61.30
74511;DHT22;62991;50.040;18.400;2023-02-26T10:01:25;2.90;61.80
74511;DHT22;62991;50.040;18.400;2023-02-26T10:04:47;2.80;61.50
74511;DHT22;62991;50.040;18.400;2023-02-26T10:08:16;3.20;60.00
74511;DHT22;62991;50.040;18.400;2023-02-26T10:11:30;3.30;59.10
74511;DHT22;62991;50.040;18.400;2023-02-26T10:17:53;4.00;55.80
74511;DHT22;62991;50.040;18.400;2023-02-26T10:24:17;3.60;53.80
74511;DHT22;62991;50.040;18.400;2023-02-26T10:27:41;3.40;53.10
74511;DHT22;62991;50.040;18.400;2023-02-26T10:40:26;3.00;51.50
74511;DHT22;62991;50.040;18.400;2023-02-26T10:43:46;2.90;53.00
74511;DHT22;62991;50.040;18.400;2023-02-26T10:50:11;3.20;53.40
74511;DHT22;62991;50.040;18.400;2023-02-26T10:53:12;3.50;53.10
74511;DHT22;62991;50.040;18.400;2023-02-26T10:56:17;3.70;52.70
74511;DHT22;62991;50.040;18.400;2023-02-26T10:59:20;3.70;53.10
74511;DHT22;62991;50.040;18.400;2023-02-26T11:05:33;3.50;53.20
74511;DHT22;62991;50.040;18.400;2023-02-26T11:08:42;3.70;57.50
74511;DHT22;62991;50.040;18.400;2023-02-26T11:11:55;3.70;54.70
74511;DHT22;62991;50.040;18.400;2023-02-26T11:14:56;3.70;53.90
74511;DHT22;62991;50.040;18.400;2023-02-26T11:17:58;3.60;54.60
74511;DHT22;62991;50.040;18.400;2023-02-26T11:21:00;3.60;54.90
74511;DHT22;62991;50.040;18.400;2023-02-26T11:27:36;3.50;55.90
74511;DHT22;62991;50.040;18.400;2023-02-26T11:30:37;3.10;57.50
74511;DHT22;62991;50.040;18.400;2023-02-26T11:33:43;3.00;57.50
74511;DHT22;62991;50.040;18.400;2023-02-26T11:36:44;2.70;58.00
74511;DHT22;62991;50.040;18.400;2023-02-26T11:39:44;2.50;59.00
74511;DHT22;62991;50.040;18.400;2023-02-26T11:42:57;2.40;59.10
74511;DHT22;62991;50.040;18.400;2023-02-26T11:45:59;2.50;60.50
74511;DHT22;62991;50.040;18.400;2023-02-26T11:49:01;2.70;60.50
74511;DHT22;62991;50.040;18.400;2023-02-26T11:55:20;2.70;60.30
74511;DHT22;62991;50.040;18.400;2023-02-26T11:58:23;2.80;61.80
74511;DHT22;62991;50.040;18.400;2023-02-26T12:01:28;2.80;61.90
74511;DHT22;62991;50.040;18.400;2023-02-26T12:04:30;2.80;63.10
74511;DHT22;62991;50.040;18.400;2023-02-26T12:07:31;2.80;62.50
74511;DHT22;62991;50.040;18.400;2023-02-26T12:21:14;3.30;60.60
74511;DHT22;62991;50.040;18.400;2023-02-26T12:27:52;3.20;59.30
74511;DHT22;62991;50.040;18.400;2023-02-26T12:37:53;3.30;58.80
74511;DHT22;62991;50.040;18.400;2023-02-26T12:44:05;3.40;56.10
74511;DHT22;62991;50.040;18.400;2023-02-26T13:01:27;3.30;54.90
74511;DHT22;62991;50.040;18.400;2023-02-26T13:10:50;4.40;52.20
74511;DHT22;62991;50.040;18.400;2023-02-26T13:23:21;3.40;57.30
74511;DHT22;62991;50.040;18.400;2023-02-26T13:26:23;3.20;59.30
74511;DHT22;62991;50.040;18.400;2023-02-26T13:29:31;3.00;60.30
74511;DHT22;62991;50.040;18.400;2023-02-26T13:32:34;3.10;60.60
74511;DHT22;62991;50.040;18.400;2023-02-26T13:35:40;3.00;61.00
74511;DHT22;62991;50.040;18.400;2023-02-26T13:39:13;3.10;60.80
74511;DHT22;62991;50.040;18.400;2023-02-26T13:42:32;3.10;61.30
74511;DHT22;62991;50.040;18.400;2023-02-26T13:51:56;2.60;65.10
74511;DHT22;62991;50.040;18.400;2023-02-26T13:54:57;2.50;65.20
74511;DHT22;62991;50.040;18.400;2023-02-26T13:58:15;2.50;65.20
74511;DHT22;62991;50.040;18.400;2023-02-26T14:01:19;2.50;65.00
74511;DHT22;62991;50.040;18.400;2023-02-26T14:07:51;2.30;64.80
74511;DHT22;62991;50.040;18.400;2023-02-26T14:11:02;2.40;64.80
74511;DHT22;62991;50.040;18.400;2023-02-26T14:20:26;2.80;63.10
74511;DHT22;62991;50.040;18.400;2023-02-26T14:23:35;4.20;59.00
74511;DHT22;62991;50.040;18.400;2023-02-26T14:26:36;4.40;57.60
74511;DHT22;62991;50.040;18.400;2023-02-26T14:35:58;3.50;57.70
74511;DHT22;62991;50.040;18.400;2023-02-26T14:39:02;3.20;58.00
74511;DHT22;62991;50.040;18.400;2023-02-26T14:42:09;3.00;58.70
74511;DHT22;62991;50.040;18.400;2023-02-26T14:45:36;2.90;58.80
74511;DHT22;62991;50.040;18.400;2023-02-26T14:48:38;2.90;59.60
74511;DHT22;62991;50.040;18.400;2023-02-26T15:08:32;3.00;59.80
74511;DHT22;62991;50.040;18.400;2023-02-26T15:11:48;2.80;60.30
74511;DHT22;62991;50.040;18.400;2023-02-26T15:22:21;2.90;58.10
74511;DHT22;62991;50.040;18.400;2023-02-26T15:25:29;2.70;56.80
74511;DHT22;62991;50.040;18.400;2023-02-26T15:28:36;2.60;57.00
74511;DHT22;62991;50.040;18.400;2023-02-26T15:31:53;2.70;56.40
74511;DHT22;62991;50.040;18.400;2023-02-26T15:35:00;2.70;56.60
74511;DHT22;62991;50.040;18.400;2023-02-26T15:38:03;2.50;56.60
74511;DHT22;62991;50.040;18.400;2023-02-26T15:41:04;2.60;57.00
74511;DHT22;62991;50.040;18.400;2023-02-26T15:44:08;2.60;57.40
74511;DHT22;62991;50.040;18.400;2023-02-26T15:47:15;2.80;56.80
74511;DHT22;62991;50.040;18.400;2023-02-26T15:50:16;2.70;56.30
74511;DHT22;62991;50.040;18.400;2023-02-26T15:53:44;2.80;56.50
74511;DHT22;62991;50.040;18.400;2023-02-26T15:56:46;2.80;56.20
74511;DHT22;62991;50.040;18.400;2023-02-26T15:59:49;2.90;56.70
74511;DHT22;62991;50.040;18.400;2023-02-26T16:02:53;2.90;56.00
74511;DHT22;62991;50.040;18.400;2023-02-26T16:05:57;2.80;56.10
74511;DHT22;62991;50.040;18.400;2023-02-26T16:08:58;2.80;55.70
74511;DHT22;62991;50.040;18.400;2023-02-26T16:12:09;2.70;55.90
74511;DHT22;62991;50.040;18.400;2023-02-26T16:15:14;2.70;56.00
74511;DHT22;62991;50.040;18.400;2023-02-26T16:18:19;2.70;56.60
74511;DHT22;62991;50.040;18.400;2023-02-26T16:21:31;2.70;56.70
74511;DHT22;62991;50.040;18.400;2023-02-26T16:24:34;2.80;56.30
74511;DHT22;62991;50.040;18.400;2023-02-26T16:27:35;2.90;56.60
74511;DHT22;62991;50.040;18.400;2023-02-26T16:30:37;2.70;56.60
74511;DHT22;62991;50.040;18.400;2023-02-26T16:33:38;2.90;56.20
74511;DHT22;62991;50.040;18.400;2023-02-26T16:36:40;3.00;56.30
74511;DHT22;62991;50.040;18.400;2023-02-26T16:39:43;2.90;56.10
74511;DHT22;62991;50.040;18.400;2023-02-26T16:43:02;2.90;55.90
74511;DHT22;62991;50.040;18.400;2023-02-26T16:46:04;2.90;56.80
74511;DHT22;62991;50.040;18.400;2023-02-26T16:49:18;2.90;56.80
74511;DHT22;62991;50.040;18.400;2023-02-26T16:52:23;2.90;56.60
74511;DHT22;62991;50.040;18.400;2023-02-26T16:55:28;2.90;57.00
74511;DHT22;62991;50.040;18.400;2023-02-26T16:58:30;2.90;56.50
74511;DHT22;62991;50.040;18.400;2023-02-26T17:01:37;3.10;56.70
74511;DHT22;62991;50.040;18.400;2023-02-26T17:04:39;2.90;56.90
74511;DHT22;62991;50.040;18.400;2023-02-26T17:07:54;2.90;56.70
74511;DHT22;62991;50.040;18.400;2023-02-26T17:11:03;2.90;56.90
74511;DHT22;62991;50.040;18.400;2023-02-26T17:17:18;2.70;57.30
74511;DHT22;62991;50.040;18.400;2023-02-26T17:20:19;2.90;57.00
74511;DHT22;62991;50.040;18.400;2023-02-26T17:23:20;2.80;57.40
74511;DHT22;62991;50.040;18.400;2023-02-26T17:26:23;2.90;57.00
74511;DHT22;62991;50.040;18.400;2023-02-26T17:32:30;2.70;57.70
74511;DHT22;62991;50.040;18.400;2023-02-26T17:35:31;2.80;58.00
74511;DHT22;62991;50.040;18.400;2023-02-26T17:38:32;3.10;57.80
74511;DHT22;62991;50.040;18.400;2023-02-26T17:41:33;3.30;57.30
74511;DHT22;62991;50.040;18.400;2023-02-26T17:44:34;3.30;57.30
74511;DHT22;62991;50.040;18.400;2023-02-26T17:47:34;3.20;57.60
74511;DHT22;62991;50.040;18.400;2023-02-26T17:50:48;3.00;57.70
74511;DHT22;62991;50.040;18.400;2023-02-26T17:53:50;3.10;57.30
74511;DHT22;62991;50.040;18.400;2023-02-26T17:56:50;3.20;57.60
74511;DHT22;62991;50.040;18.400;2023-02-26T17:59:51;3.20;57.40
74511;DHT22;62991;50.040;18.400;2023-02-26T18:02:52;3.10;57.70
74511;DHT22;62991;50.040;18.400;2023-02-26T18:05:54;3.30;57.60
74511;DHT22;62991;50.040;18.400;2023-02-26T18:08:55;3.20;57.90
74511;DHT22;62991;50.040;18.400;2023-02-26T18:11:56;3.40;57.10
74511;DHT22;62991;50.040;18.400;2023-02-26T18:14:56;3.50;56.80
74511;DHT22;62991;50.040;18.400;2023-02-26T18:17:57;3.50;57.00
74511;DHT22;62991;50.040;18.400;2023-02-26T18:20:58;3.60;56.70
74511;DHT22;62991;50.040;18.400;2023-02-26T18:23:59;3.50;56.40
74511;DHT22;62991;50.040;18.400;2023-02-26T18:27:01;3.20;57.30
74511;DHT22;62991;50.040;18.400;2023-02-26T18:30:02;3.00;57.50
74511;DHT22;62991;50.040;18.400;2023-02-26T18:33:04;3.00;57.50
74511;DHT22;62991;50.040;18.400;2023-02-26T18:36:05;2.80;56.90
74511;DHT22;62991;50.040;18.400;2023-02-26T18:39:10;2.70;57.60
74511;DHT22;62991;50.040;18.400;2023-02-26T18:45:19;2.60;57.80
74511;DHT22;62991;50.040;18.400;2023-02-26T18:48:20;2.60;58.50
74511;DHT22;62991;50.040;18.400;2023-02-26T18:51:21;2.60;57.90
74511;DHT22;62991;50.040;18.400;2023-02-26T18:54:22;2.80;57.60
74511;DHT22;62991;50.040;18.400;2023-02-26T18:57:22;2.90;57.40
74511;DHT22;62991;50.040;18.400;2023-02-26T19:00:23;2.80;57.60
74511;DHT22;62991;50.040;18.400;2023-02-26T19:03:24;2.80;57.60
74511;DHT22;62991;50.040;18.400;2023-02-26T19:06:25;2.80;57.50
74511;DHT22;62991;50.040;18.400;2023-02-26T19:09:26;2.90;57.70
74511;DHT22;62991;50.040;18.400;2023-02-26T19:12:28;2.90;57.60
74511;DHT22;62991;50.040;18.400;2023-02-26T19:15:29;2.90;57.40
74511;DHT22;62991;50.040;18.400;2023-02-26T19:18:30;2.90;57.30
74511;DHT22;62991;50.040;18.400;2023-02-26T19:21:32;2.90;57.90
74511;DHT22;62991;50.040;18.400;2023-02-26T19:24:33;3.00;57.60
74511;DHT22;62991;50.040;18.400;2023-02-26T19:27:35;2.80;57.90
74511;DHT22;62991;50.040;18.400;2023-02-26T19:30:36;2.70;58.20
74511;DHT22;62991;50.040;18.400;2023-02-26T19:33:39;2.70;58.10
74511;DHT22;62991;50.040;18.400;2023-02-26T19:36:39;2.60;58.50
74511;DHT22;62991;50.040;18.400;2023-02-26T19:39:44;2.60;58.70
74511;DHT22;62991;50.040;18.400;2023-02-26T19:42:46;2.60;58.50
74511;DHT22;62991;50.040;18.400;2023-02-26T19:45:47;2.50;58.40
74511;DHT22;62991;50.040;18.400;2023-02-26T19:48:48;2.50;58.40
74511;DHT22;62991;50.040;18.400;2023-02-26T19:51:49;2.40;58.60
74511;DHT22;62991;50.040;18.400;2023-02-26T19:54:50;2.60;58.50
74511;DHT22;62991;50.040;18.400;2023-02-26T19:57:50;2.40;58.60
74511;DHT22;62991;50.040;18.400;2023-02-26T20:00:52;2.40;58.90
74511;DHT22;62991;50.040;18.400;2023-02-26T20:03:53;2.40;58.60
74511;DHT22;62991;50.040;18.400;2023-02-26T20:06:54;2.60;58.30
74511;DHT22;62991;50.040;18.400;2023-02-26T20:09:55;2.70;58.00
74511;DHT22;62991;50.040;18.400;2023-02-26T20:12:56;2.60;58.40
74511;DHT22;62991;50.040;18.400;2023-02-26T20:15:58;2.40;58.70
74511;DHT22;62991;50.040;18.400;2023-02-26T20:18:59;2.40;59.10
74511;DHT22;62991;50.040;18.400;2023-02-26T20:21:59;2.40;59.40
74511;DHT22;62991;50.040;18.400;2023-02-26T20:25:00;2.40;59.70
74511;DHT22;62991;50.040;18.400;2023-02-26T20:28:01;2.30;60.10
74511;DHT22;62991;50.040;18.400;2023-02-26T20:31:03;2.30;60.50
74511;DHT22;62991;50.040;18.400;2023-02-26T20:34:03;2.30;60.50
74511;DHT22;62991;50.040;18.400;2023-02-26T20:37:06;2.30;61.10
74511;DHT22;62991;50.040;18.400;2023-02-26T20:40:07;2.20;62.20
74511;DHT22;62991;50.040;18.400;2023-02-26T20:43:08;2.40;62.00
74511;DHT22;62991;50.040;18.400;2023-02-26T20:46:09;2.40;61.80
74511;DHT22;62991;50.040;18.400;2023-02-26T20:49:10;2.40;62.10
74511;DHT22;62991;50.040;18.400;2023-02-26T20:52:11;2.50;62.30
74511;DHT22;62991;50.040;18.400;2023-02-26T20:55:12;2.60;62.30
74511;DHT22;62991;50.040;18.400;2023-02-26T20:58:12;2.60;62.60
74511;DHT22;62991;50.040;18.400;2023-02-26T21:01:13;2.70;62.40
74511;DHT22;62991;50.040;18.400;2023-02-26T21:04:14;2.50;63.00
74511;DHT22;62991;50.040;18.400;2023-02-26T21:07:14;2.30;63.70
74511;DHT22;62991;50.040;18.400;2023-02-26T21:10:21;2.20;63.90
74511;DHT22;62991;50.040;18.400;2023-02-26T21:13:22;2.20;63.70
74511;DHT22;62991;50.040;18.400;2023-02-26T21:16:22;2.20;64.00
74511;DHT22;62991;50.040;18.400;2023-02-26T21:19:24;2.20;63.90
74511;DHT22;62991;50.040;18.400;2023-02-26T21:22:25;2.10;63.60
74511;DHT22;62991;50.040;18.400;2023-02-26T21:25:26;2.00;64.10
74511;DHT22;62991;50.040;18.400;2023-02-26T21:28:27;1.90;64.00
74511;DHT22;62991;50.040;18.400;2023-02-26T21:31:27;1.90;64.00
74511;DHT22;62991;50.040;18.400;2023-02-26T21:34:30;1.80;64.40
74511;DHT22;62991;50.040;18.400;2023-02-26T21:37:32;1.80;64.30
74511;DHT22;62991;50.040;18.400;2023-02-26T21:40:33;1.70;64.60
74511;DHT22;62991;50.040;18.400;2023-02-26T21:43:35;1.60;64.40
74511;DHT22;62991;50.040;18.400;2023-02-26T21:46:36;1.60;64.80
74511;DHT22;62991;50.040;18.400;2023-02-26T21:49:36;1.60;65.00
74511;DHT22;62991;50.040;18.400;2023-02-26T21:52:37;1.60;65.00
74511;DHT22;62991;50.040;18.400;2023-02-26T21:55:38;1.60;65.00
74511;DHT22;62991;50.040;18.400;2023-02-26T21:58:38;1.60;64.90
74511;DHT22;62991;50.040;18.400;2023-02-26T22:01:39;1.60;64.90
74511;DHT22;62991;50.040;18.400;2023-02-26T22:04:40;1.60;65.00
74511;DHT22;62991;50.040;18.400;2023-02-26T22:07:41;1.70;65.00
74511;DHT22;62991;50.040;18.400;2023-02-26T22:10:42;1.70;65.00
74511;DHT22;62991;50.040;18.400;2023-02-26T22:13:45;1.70;64.70
74511;DHT22;62991;50.040;18.400;2023-02-26T22:16:47;1.80;64.80
74511;DHT22;62991;50.040;18.400;2023-02-26T22:19:48;1.90;64.30
74511;DHT22;62991;50.040;18.400;2023-02-26T22:22:49;1.60;64.60
74511;DHT22;62991;50.040;18.400;2023-02-26T22:25:51;1.70;64.50
74511;DHT22;62991;50.040;18.400;2023-02-26T22:28:51;1.60;64.90
74511;DHT22;62991;50.040;18.400;2023-02-26T22:31:52;1.60;64.90